map of BBU home
BBU - Airport
Location
City:  Bucharest, Bucuresti, Romania
Name:Aurel Vlaicu International Airport
Old (Alt.):Baneasa Airport, Bucharest City Airport
ICAO:LRBS
IATA:BBU

Details
Type:Airport (Aerodrome, Airfield)
Use:Public/Civil, International (customs port of entry)
Latitude:4430'11"N (44.503194)
Longitude:2606'08"E (26.102111)
Datum:WGS 1984
Elevation:297 ft (91 m)
Variation:5.81E (WMM2015v2 magnetic declination)
0.12 annual change
Runways:1
Longest:10499 × 148 ft (3200 × 45 m), paved

Time
Time Zone:UTC+2 (DST+3)
Local Time:

Weather
METAR:LRBS 041400Z 27003KT 210V330 CAVOK 19/05 Q1020 NOSIG
TAF:LRBS 041100Z 0412/0512 VRB03KT CAVOK
TEMPO 0415/0418 3000 BR
BECMG 0416/0418 07012KT

Related Locations
Nearby:
Farthest:CHT: 11322 mi / 18220 km
Waitangi [Tuuta], CIT, NZ

Find:

   beyond  
but within

Other Information
Maps:
NOTAMs:
Links:
Sources:

  
  • flag of Romania
  • flag of Bucharest
  

Sectional Chart

Flight Planning
at skyvector.com

Satellite Image

Google Maps Satellite view

 

Copyright © 2004-2019 Karl L. Swartz. All rights reserved.
The Great Circle Mapper name and logo are trademarks of the Great Circle Mapper.
All other trademarks mentioned herein belong to their respective owners.
Please see credits for attibutions and further copyright information.

  Follow gcmap on Facebook Follow gcmap on Twitter GCmap on LinkedIn

hCard Microformat

Geo Microformat